BCN weather

Barcelona International Airport
Barcelona, Catalonia, Spain

Public forecast

Using degrees Celsius for public forecast. Weather courtesy of forecast.io.

Current aviation weather report (METAR) for Barcelona International Airport

Retrieved 2020/08/05 18:30 UTC (23 minutes ago):

LEBL 051830Z 20007KT 9999 SCT022 27/21 Q1013 NOSIG

Aviation forecast (TAF) for Barcelona International Airport

Retrieved 2020/08/05 18:27 UTC (26 minutes ago):

TAF LEBL 051700Z 0518/0618 22008KT 9999 FEW025 TX30/0612Z TN22/0606Z TEMPO 0519/0524 VRB04KT BECMG 0522/0524 33007KT BECMG 0607/0609 20012KT